createdAt,value
2022-10-22T00:08:03.468Z,3.33
2022-10-22T00:23:04.906Z,3.77
2022-10-22T00:38:06.356Z,3.07
2022-10-22T00:53:07.788Z,3.37
2022-10-22T01:08:09.286Z,3.53
2022-10-22T01:23:10.741Z,3.20
2022-10-22T01:38:12.197Z,2.37
2022-10-22T01:53:13.659Z,2.30
2022-10-22T02:08:15.286Z,2.50
2022-10-22T02:23:16.743Z,2.83
2022-10-22T02:38:18.203Z,1.83
2022-10-22T02:53:19.648Z,2.33
2022-10-22T03:08:21.092Z,2.30
2022-10-22T03:23:22.545Z,2.40
2022-10-22T03:38:24.006Z,2.43
2022-10-22T03:53:25.451Z,2.73
2022-10-22T04:08:26.906Z,2.10
2022-10-22T04:23:28.362Z,1.90
2022-10-22T04:38:29.813Z,2.40
2022-10-22T04:53:31.253Z,2.30
2022-10-22T05:08:32.796Z,3.23
2022-10-22T05:23:34.285Z,2.60
2022-10-22T05:38:35.721Z,2.40
2022-10-22T05:53:37.167Z,3.47
2022-10-22T06:08:38.708Z,2.00
2022-10-22T06:23:40.294Z,2.43
2022-10-22T06:38:41.773Z,3.40
2022-10-22T06:53:43.300Z,4.77
2022-10-22T07:08:45.001Z,3.97
2022-10-22T07:23:46.897Z,3.90
2022-10-22T07:54:13.522Z,5.17
2022-10-22T08:09:15.056Z,3.77
2022-10-22T08:24:16.565Z,4.33
2022-10-22T08:39:18.009Z,5.23
2022-10-22T08:54:19.457Z,4.70
2022-10-22T09:09:20.968Z,2.43
2022-10-22T09:24:22.440Z,4.13
2022-10-22T09:39:23.920Z,4.87
2022-10-22T09:54:25.387Z,3.03
2022-10-22T10:09:26.889Z,2.67
2022-10-22T10:24:28.346Z,3.10
2022-10-22T10:39:29.808Z,3.30
2022-10-22T10:54:31.318Z,3.47
2022-10-22T11:09:32.794Z,3.90
2022-10-22T11:24:34.243Z,4.13
2022-10-22T11:39:35.704Z,4.70
2022-10-22T11:54:37.177Z,4.00
2022-10-22T12:09:38.710Z,3.30
2022-10-22T12:24:40.179Z,3.67
2022-10-22T12:39:41.622Z,4.27
2022-10-22T12:54:43.079Z,3.47
2022-10-22T13:09:44.640Z,3.70
2022-10-22T13:24:46.128Z,5.40
2022-10-22T13:39:47.616Z,4.07
2022-10-22T13:54:49.077Z,4.03
2022-10-22T14:09:50.533Z,7.77
2022-10-22T14:24:51.983Z,3.30
2022-10-22T14:39:53.466Z,4.00
2022-10-22T14:54:54.951Z,5.20
2022-10-22T15:09:56.437Z,3.40
2022-10-22T15:24:57.954Z,3.37
2022-10-22T15:39:59.398Z,4.30
2022-10-22T15:55:00.930Z,4.63
2022-10-22T16:10:02.459Z,4.50
2022-10-22T16:25:03.917Z,4.83
2022-10-22T16:40:08.218Z,9.80
2022-10-22T16:55:11.215Z,8.80
2022-10-22T17:10:12.732Z,10.33
2022-10-22T17:25:14.275Z,5.30
2022-10-22T17:40:16.921Z,5.80
2022-10-22T17:55:18.399Z,7.33
2022-10-22T18:10:19.962Z,7.30
2022-10-22T18:25:23.721Z,4.67
2022-10-22T18:40:25.227Z,6.37
2022-10-22T18:55:26.775Z,4.23
2022-10-22T19:10:29.196Z,5.50
2022-10-22T19:25:30.665Z,4.60
2022-10-22T19:40:32.164Z,5.80
2022-10-22T19:55:34.777Z,4.73
2022-10-22T20:10:36.287Z,5.67
2022-10-22T20:25:38.382Z,5.40
2022-10-22T20:40:40.509Z,3.73
2022-10-22T20:55:41.977Z,4.47
2022-10-22T21:10:43.424Z,4.13
2022-10-22T21:25:44.878Z,4.13
2022-10-22T21:40:46.330Z,5.10
2022-10-22T21:55:47.791Z,7.23
2022-10-22T22:10:49.231Z,8.17
2022-10-22T22:25:50.753Z,7.23
2022-10-22T22:40:52.211Z,5.70
2022-10-22T22:55:53.666Z,5.70
2022-10-22T23:10:55.114Z,5.27
2022-10-22T23:25:56.559Z,5.80
2022-10-22T23:40:58.009Z,7.37
2022-10-22T23:55:59.474Z,4.93
